sensor_id;sensor_type;location;lat;lon;timestamp;P1;durP1;ratioP1;P2;durP2;ratioP2
22111;SDS011;11222;50.872;4.312;2023-02-08T00:01:16;26.60;;;16.85;;
22111;SDS011;11222;50.872;4.312;2023-02-08T00:03:44;28.42;;;16.63;;
22111;SDS011;11222;50.872;4.312;2023-02-08T00:06:10;25.08;;;15.30;;
22111;SDS011;11222;50.872;4.312;2023-02-08T00:08:36;27.58;;;15.82;;
22111;SDS011;11222;50.872;4.312;2023-02-08T00:11:03;26.17;;;16.48;;
22111;SDS011;11222;50.872;4.312;2023-02-08T00:13:30;29.13;;;16.58;;
22111;SDS011;11222;50.872;4.312;2023-02-08T00:15:56;24.40;;;15.60;;
22111;SDS011;11222;50.872;4.312;2023-02-08T00:18:22;32.80;;;17.48;;
22111;SDS011;11222;50.872;4.312;2023-02-08T00:20:47;26.88;;;17.48;;
22111;SDS011;11222;50.872;4.312;2023-02-08T00:23:14;28.20;;;17.63;;
22111;SDS011;11222;50.872;4.312;2023-02-08T00:25:40;31.25;;;18.25;;
22111;SDS011;11222;50.872;4.312;2023-02-08T00:28:07;32.70;;;18.90;;
22111;SDS011;11222;50.872;4.312;2023-02-08T00:30:36;30.40;;;18.80;;
22111;SDS011;11222;50.872;4.312;2023-02-08T00:33:01;34.47;;;18.75;;
22111;SDS011;11222;50.872;4.312;2023-02-08T00:35:28;31.23;;;18.38;;
22111;SDS011;11222;50.872;4.312;2023-02-08T00:37:54;32.10;;;17.92;;
22111;SDS011;11222;50.872;4.312;2023-02-08T00:40:20;32.20;;;18.33;;
22111;SDS011;11222;50.872;4.312;2023-02-08T00:42:45;31.35;;;18.10;;
22111;SDS011;11222;50.872;4.312;2023-02-08T00:45:11;27.48;;;17.10;;
22111;SDS011;11222;50.872;4.312;2023-02-08T00:47:37;27.45;;;17.15;;
22111;SDS011;11222;50.872;4.312;2023-02-08T00:50:03;32.13;;;18.23;;
22111;SDS011;11222;50.872;4.312;2023-02-08T00:52:29;29.05;;;17.88;;
22111;SDS011;11222;50.872;4.312;2023-02-08T00:54:54;28.38;;;17.83;;
22111;SDS011;11222;50.872;4.312;2023-02-08T00:57:20;28.52;;;17.05;;
22111;SDS011;11222;50.872;4.312;2023-02-08T00:59:46;32.33;;;17.67;;
22111;SDS011;11222;50.872;4.312;2023-02-08T01:02:12;32.38;;;18.13;;
22111;SDS011;11222;50.872;4.312;2023-02-08T01:04:37;29.15;;;17.23;;
22111;SDS011;11222;50.872;4.312;2023-02-08T01:07:03;33.92;;;18.60;;
22111;SDS011;11222;50.872;4.312;2023-02-08T01:09:30;31.38;;;17.83;;
22111;SDS011;11222;50.872;4.312;2023-02-08T01:11:56;32.85;;;17.95;;
22111;SDS011;11222;50.872;4.312;2023-02-08T01:14:21;27.75;;;17.67;;
22111;SDS011;11222;50.872;4.312;2023-02-08T01:16:47;32.30;;;18.58;;
22111;SDS011;11222;50.872;4.312;2023-02-08T01:19:13;34.25;;;17.92;;
22111;SDS011;11222;50.872;4.312;2023-02-08T01:21:40;30.20;;;17.02;;
22111;SDS011;11222;50.872;4.312;2023-02-08T01:24:07;27.75;;;17.77;;
22111;SDS011;11222;50.872;4.312;2023-02-08T01:26:33;28.48;;;17.48;;
22111;SDS011;11222;50.872;4.312;2023-02-08T01:29:00;29.88;;;17.98;;
22111;SDS011;11222;50.872;4.312;2023-02-08T01:31:27;29.65;;;17.83;;
22111;SDS011;11222;50.872;4.312;2023-02-08T01:33:54;31.85;;;18.08;;
22111;SDS011;11222;50.872;4.312;2023-02-08T01:36:21;29.40;;;18.05;;
22111;SDS011;11222;50.872;4.312;2023-02-08T01:38:47;31.15;;;18.33;;
22111;SDS011;11222;50.872;4.312;2023-02-08T01:41:20;30.05;;;18.73;;
22111;SDS011;11222;50.872;4.312;2023-02-08T01:46:42;32.58;;;18.38;;
22111;SDS011;11222;50.872;4.312;2023-02-08T01:51:44;31.50;;;18.67;;
22111;SDS011;11222;50.872;4.312;2023-02-08T01:54:17;29.25;;;18.30;;
22111;SDS011;11222;50.872;4.312;2023-02-08T01:56:46;29.63;;;18.58;;
22111;SDS011;11222;50.872;4.312;2023-02-08T01:59:16;30.88;;;18.58;;
22111;SDS011;11222;50.872;4.312;2023-02-08T02:01:47;30.20;;;18.48;;
22111;SDS011;11222;50.872;4.312;2023-02-08T02:04:16;31.02;;;17.88;;
22111;SDS011;11222;50.872;4.312;2023-02-08T02:06:43;31.67;;;17.65;;
22111;SDS011;11222;50.872;4.312;2023-02-08T02:09:18;31.25;;;19.88;;
22111;SDS011;11222;50.872;4.312;2023-02-08T02:12:04;27.23;;;17.80;;
22111;SDS011;11222;50.872;4.312;2023-02-08T02:14:31;27.90;;;17.33;;
22111;SDS011;11222;50.872;4.312;2023-02-08T02:16:59;29.20;;;17.33;;
22111;SDS011;11222;50.872;4.312;2023-02-08T02:19:32;30.48;;;18.05;;
22111;SDS011;11222;50.872;4.312;2023-02-08T02:27:28;32.05;;;17.92;;
22111;SDS011;11222;50.872;4.312;2023-02-08T02:39:19;29.77;;;18.83;;
22111;SDS011;11222;50.872;4.312;2023-02-08T02:41:39;28.73;;;18.65;;
22111;SDS011;11222;50.872;4.312;2023-02-08T02:44:34;30.17;;;18.88;;
22111;SDS011;11222;50.872;4.312;2023-02-08T02:47:11;30.65;;;18.45;;
22111;SDS011;11222;50.872;4.312;2023-02-08T02:49:51;31.27;;;18.40;;
22111;SDS011;11222;50.872;4.312;2023-02-08T02:52:24;28.52;;;18.48;;
22111;SDS011;11222;50.872;4.312;2023-02-08T02:54:57;32.45;;;18.35;;
22111;SDS011;11222;50.872;4.312;2023-02-08T02:57:29;28.77;;;18.52;;
22111;SDS011;11222;50.872;4.312;2023-02-08T02:59:57;30.98;;;18.75;;
22111;SDS011;11222;50.872;4.312;2023-02-08T03:02:27;31.45;;;19.73;;
22111;SDS011;11222;50.872;4.312;2023-02-08T03:04:53;34.08;;;19.73;;
22111;SDS011;11222;50.872;4.312;2023-02-08T03:13:00;36.80;;;21.17;;
22111;SDS011;11222;50.872;4.312;2023-02-08T03:26:30;32.33;;;20.67;;
22111;SDS011;11222;50.872;4.312;2023-02-08T03:34:35;31.60;;;19.75;;
22111;SDS011;11222;50.872;4.312;2023-02-08T03:40:15;36.10;;;22.17;;
22111;SDS011;11222;50.872;4.312;2023-02-08T03:42:45;43.33;;;28.15;;
22111;SDS011;11222;50.872;4.312;2023-02-08T03:45:17;38.45;;;22.80;;
22111;SDS011;11222;50.872;4.312;2023-02-08T03:47:48;33.05;;;20.27;;
22111;SDS011;11222;50.872;4.312;2023-02-08T03:50:16;36.47;;;21.02;;
22111;SDS011;11222;50.872;4.312;2023-02-08T03:52:44;35.28;;;21.17;;
22111;SDS011;11222;50.872;4.312;2023-02-08T03:55:22;34.65;;;20.58;;
22111;SDS011;11222;50.872;4.312;2023-02-08T04:00:43;33.80;;;21.77;;
22111;SDS011;11222;50.872;4.312;2023-02-08T04:03:24;36.15;;;22.98;;
22111;SDS011;11222;50.872;4.312;2023-02-08T04:05:52;35.65;;;22.40;;
22111;SDS011;11222;50.872;4.312;2023-02-08T04:08:19;36.30;;;21.73;;
22111;SDS011;11222;50.872;4.312;2023-02-08T04:10:45;40.70;;;22.25;;
22111;SDS011;11222;50.872;4.312;2023-02-08T04:13:12;36.10;;;20.80;;
22111;SDS011;11222;50.872;4.312;2023-02-08T04:15:37;28.33;;;19.35;;
22111;SDS011;11222;50.872;4.312;2023-02-08T04:18:03;35.17;;;21.45;;
22111;SDS011;11222;50.872;4.312;2023-02-08T04:20:29;31.23;;;20.30;;
22111;SDS011;11222;50.872;4.312;2023-02-08T04:22:55;31.98;;;20.00;;
22111;SDS011;11222;50.872;4.312;2023-02-08T04:25:21;29.60;;;19.65;;
22111;SDS011;11222;50.872;4.312;2023-02-08T04:27:46;35.17;;;20.00;;
22111;SDS011;11222;50.872;4.312;2023-02-08T04:30:12;33.88;;;21.17;;
22111;SDS011;11222;50.872;4.312;2023-02-08T04:32:38;34.22;;;20.73;;
22111;SDS011;11222;50.872;4.312;2023-02-08T04:35:04;32.55;;;21.02;;
22111;SDS011;11222;50.872;4.312;2023-02-08T04:37:30;35.92;;;21.05;;
22111;SDS011;11222;50.872;4.312;2023-02-08T04:39:56;38.45;;;20.23;;
22111;SDS011;11222;50.872;4.312;2023-02-08T04:42:22;30.80;;;20.02;;
22111;SDS011;11222;50.872;4.312;2023-02-08T04:44:48;32.92;;;20.98;;
22111;SDS011;11222;50.872;4.312;2023-02-08T04:47:13;39.55;;;21.95;;
22111;SDS011;11222;50.872;4.312;2023-02-08T04:49:39;36.28;;;21.17;;
22111;SDS011;11222;50.872;4.312;2023-02-08T04:52:05;37.50;;;20.65;;
22111;SDS011;11222;50.872;4.312;2023-02-08T04:54:31;36.30;;;21.20;;
22111;SDS011;11222;50.872;4.312;2023-02-08T04:56:56;32.30;;;21.55;;
22111;SDS011;11222;50.872;4.312;2023-02-08T04:59:22;32.83;;;21.45;;
22111;SDS011;11222;50.872;4.312;2023-02-08T05:01:48;33.55;;;21.52;;
22111;SDS011;11222;50.872;4.312;2023-02-08T05:04:14;31.17;;;20.35;;
22111;SDS011;11222;50.872;4.312;2023-02-08T05:06:39;33.47;;;21.50;;
22111;SDS011;11222;50.872;4.312;2023-02-08T05:09:06;31.65;;;20.55;;
22111;SDS011;11222;50.872;4.312;2023-02-08T05:11:33;37.78;;;21.42;;
22111;SDS011;11222;50.872;4.312;2023-02-08T05:13:59;32.90;;;20.08;;
22111;SDS011;11222;50.872;4.312;2023-02-08T05:16:25;32.15;;;20.35;;
22111;SDS011;11222;50.872;4.312;2023-02-08T05:18:51;40.08;;;22.05;;
22111;SDS011;11222;50.872;4.312;2023-02-08T05:21:20;38.45;;;22.13;;
22111;SDS011;11222;50.872;4.312;2023-02-08T05:23:48;35.22;;;20.98;;
22111;SDS011;11222;50.872;4.312;2023-02-08T05:26:14;36.45;;;21.00;;
22111;SDS011;11222;50.872;4.312;2023-02-08T05:28:41;33.42;;;21.92;;
22111;SDS011;11222;50.872;4.312;2023-02-08T05:31:14;34.67;;;21.90;;
22111;SDS011;11222;50.872;4.312;2023-02-08T05:33:43;39.80;;;21.85;;
22111;SDS011;11222;50.872;4.312;2023-02-08T05:36:09;36.55;;;22.27;;
22111;SDS011;11222;50.872;4.312;2023-02-08T05:38:35;33.33;;;21.27;;
22111;SDS011;11222;50.872;4.312;2023-02-08T05:41:00;35.15;;;22.10;;
22111;SDS011;11222;50.872;4.312;2023-02-08T05:43:26;36.67;;;21.67;;
22111;SDS011;11222;50.872;4.312;2023-02-08T05:45:52;36.45;;;21.17;;
22111;SDS011;11222;50.872;4.312;2023-02-08T05:48:17;31.95;;;20.42;;
22111;SDS011;11222;50.872;4.312;2023-02-08T05:50:43;35.47;;;21.63;;
22111;SDS011;11222;50.872;4.312;2023-02-08T05:53:09;37.10;;;22.13;;
22111;SDS011;11222;50.872;4.312;2023-02-08T05:55:34;41.53;;;23.10;;
22111;SDS011;11222;50.872;4.312;2023-02-08T05:58:00;36.47;;;22.25;;
22111;SDS011;11222;50.872;4.312;2023-02-08T06:00:26;35.83;;;22.50;;
22111;SDS011;11222;50.872;4.312;2023-02-08T06:02:51;38.80;;;21.15;;
22111;SDS011;11222;50.872;4.312;2023-02-08T06:05:17;32.42;;;21.77;;
22111;SDS011;11222;50.872;4.312;2023-02-08T06:07:43;38.78;;;22.50;;
22111;SDS011;11222;50.872;4.312;2023-02-08T06:10:09;39.40;;;23.23;;
22111;SDS011;11222;50.872;4.312;2023-02-08T06:12:35;33.28;;;21.38;;
22111;SDS011;11222;50.872;4.312;2023-02-08T06:15:01;35.17;;;21.95;;
22111;SDS011;11222;50.872;4.312;2023-02-08T06:17:26;38.47;;;22.20;;
22111;SDS011;11222;50.872;4.312;2023-02-08T06:19:52;50.38;;;22.42;;
22111;SDS011;11222;50.872;4.312;2023-02-08T06:22:18;39.00;;;23.10;;
22111;SDS011;11222;50.872;4.312;2023-02-08T06:24:44;34.05;;;22.20;;
22111;SDS011;11222;50.872;4.312;2023-02-08T06:27:09;36.22;;;22.00;;
22111;SDS011;11222;50.872;4.312;2023-02-08T06:29:35;38.45;;;22.40;;
22111;SDS011;11222;50.872;4.312;2023-02-08T06:32:01;41.33;;;22.63;;
22111;SDS011;11222;50.872;4.312;2023-02-08T06:34:27;33.17;;;22.15;;
22111;SDS011;11222;50.872;4.312;2023-02-08T06:36:53;34.90;;;21.92;;
22111;SDS011;11222;50.872;4.312;2023-02-08T06:39:18;41.88;;;23.73;;
22111;SDS011;11222;50.872;4.312;2023-02-08T06:41:44;39.42;;;22.52;;
22111;SDS011;11222;50.872;4.312;2023-02-08T06:44:10;39.35;;;23.08;;
22111;SDS011;11222;50.872;4.312;2023-02-08T06:46:35;36.95;;;22.20;;
22111;SDS011;11222;50.872;4.312;2023-02-08T06:49:01;40.65;;;22.45;;
22111;SDS011;11222;50.872;4.312;2023-02-08T06:51:27;36.65;;;21.65;;
22111;SDS011;11222;50.872;4.312;2023-02-08T06:53:53;40.53;;;22.85;;
22111;SDS011;11222;50.872;4.312;2023-02-08T06:56:19;37.22;;;23.55;;
22111;SDS011;11222;50.872;4.312;2023-02-08T06:58:44;36.22;;;22.33;;
22111;SDS011;11222;50.872;4.312;2023-02-08T07:01:13;36.35;;;20.90;;
22111;SDS011;11222;50.872;4.312;2023-02-08T07:03:40;37.58;;;22.48;;
22111;SDS011;11222;50.872;4.312;2023-02-08T07:06:13;36.78;;;21.48;;
22111;SDS011;11222;50.872;4.312;2023-02-08T07:08:40;39.10;;;23.25;;
22111;SDS011;11222;50.872;4.312;2023-02-08T07:11:07;39.35;;;23.45;;
22111;SDS011;11222;50.872;4.312;2023-02-08T07:13:34;38.88;;;22.88;;
22111;SDS011;11222;50.872;4.312;2023-02-08T07:16:01;43.28;;;23.48;;
22111;SDS011;11222;50.872;4.312;2023-02-08T07:18:28;39.78;;;22.88;;
22111;SDS011;11222;50.872;4.312;2023-02-08T07:20:53;41.78;;;22.17;;
22111;SDS011;11222;50.872;4.312;2023-02-08T07:23:19;41.05;;;22.40;;
22111;SDS011;11222;50.872;4.312;2023-02-08T07:25:51;40.45;;;24.60;;
22111;SDS011;11222;50.872;4.312;2023-02-08T07:28:24;40.35;;;23.83;;
22111;SDS011;11222;50.872;4.312;2023-02-08T07:30:50;41.65;;;22.73;;
22111;SDS011;11222;50.872;4.312;2023-02-08T07:33:16;45.63;;;22.73;;
22111;SDS011;11222;50.872;4.312;2023-02-08T07:35:42;41.53;;;24.60;;
22111;SDS011;11222;50.872;4.312;2023-02-08T07:38:07;42.65;;;23.33;;
22111;SDS011;11222;50.872;4.312;2023-02-08T07:40:34;51.00;;;26.55;;
22111;SDS011;11222;50.872;4.312;2023-02-08T07:42:59;47.47;;;28.10;;
22111;SDS011;11222;50.872;4.312;2023-02-08T07:45:25;46.65;;;28.08;;
22111;SDS011;11222;50.872;4.312;2023-02-08T07:47:51;44.33;;;24.98;;
22111;SDS011;11222;50.872;4.312;2023-02-08T07:50:16;48.70;;;24.95;;
22111;SDS011;11222;50.872;4.312;2023-02-08T07:52:42;48.05;;;24.83;;
22111;SDS011;11222;50.872;4.312;2023-02-08T07:55:10;48.58;;;25.02;;
22111;SDS011;11222;50.872;4.312;2023-02-08T07:57:41;44.63;;;23.77;;
22111;SDS011;11222;50.872;4.312;2023-02-08T08:00:07;38.63;;;24.02;;
22111;SDS011;11222;50.872;4.312;2023-02-08T08:02:34;50.95;;;28.23;;
22111;SDS011;11222;50.872;4.312;2023-02-08T08:04:59;41.95;;;24.75;;
22111;SDS011;11222;50.872;4.312;2023-02-08T08:07:25;44.00;;;26.50;;
22111;SDS011;11222;50.872;4.312;2023-02-08T08:09:51;41.97;;;24.13;;
22111;SDS011;11222;50.872;4.312;2023-02-08T08:12:16;45.90;;;24.95;;
22111;SDS011;11222;50.872;4.312;2023-02-08T08:14:42;42.15;;;21.75;;
22111;SDS011;11222;50.872;4.312;2023-02-08T08:17:08;43.50;;;22.10;;
22111;SDS011;11222;50.872;4.312;2023-02-08T08:19:33;43.15;;;22.35;;
22111;SDS011;11222;50.872;4.312;2023-02-08T08:21:59;49.17;;;23.45;;
22111;SDS011;11222;50.872;4.312;2023-02-08T08:24:25;48.17;;;25.58;;
22111;SDS011;11222;50.872;4.312;2023-02-08T08:26:50;55.08;;;25.73;;
22111;SDS011;11222;50.872;4.312;2023-02-08T08:29:17;67.80;;;25.60;;
22111;SDS011;11222;50.872;4.312;2023-02-08T08:31:43;59.85;;;25.17;;
22111;SDS011;11222;50.872;4.312;2023-02-08T08:34:09;49.00;;;24.33;;
22111;SDS011;11222;50.872;4.312;2023-02-08T08:36:34;46.97;;;21.45;;
22111;SDS011;11222;50.872;4.312;2023-02-08T08:39:00;45.45;;;21.67;;
22111;SDS011;11222;50.872;4.312;2023-02-08T08:41:26;47.78;;;21.48;;
22111;SDS011;11222;50.872;4.312;2023-02-08T08:43:52;49.28;;;21.38;;
22111;SDS011;11222;50.872;4.312;2023-02-08T08:46:18;37.85;;;20.33;;
22111;SDS011;11222;50.872;4.312;2023-02-08T08:48:46;34.10;;;19.55;;
22111;SDS011;11222;50.872;4.312;2023-02-08T08:51:11;37.15;;;19.52;;
22111;SDS011;11222;50.872;4.312;2023-02-08T08:53:38;42.17;;;18.48;;
22111;SDS011;11222;50.872;4.312;2023-02-08T08:56:04;34.97;;;16.88;;
22111;SDS011;11222;50.872;4.312;2023-02-08T08:58:30;29.42;;;14.25;;
22111;SDS011;11222;50.872;4.312;2023-02-08T09:00:56;31.60;;;12.23;;
22111;SDS011;11222;50.872;4.312;2023-02-08T09:03:23;20.23;;;11.27;;
22111;SDS011;11222;50.872;4.312;2023-02-08T09:05:49;18.50;;;10.07;;
22111;SDS011;11222;50.872;4.312;2023-02-08T09:08:14;19.40;;;10.10;;
22111;SDS011;11222;50.872;4.312;2023-02-08T09:10:42;28.23;;;10.95;;
22111;SDS011;11222;50.872;4.312;2023-02-08T09:13:08;16.55;;;10.52;;
22111;SDS011;11222;50.872;4.312;2023-02-08T09:15:36;17.13;;;9.23;;
22111;SDS011;11222;50.872;4.312;2023-02-08T09:18:03;16.75;;;9.13;;
22111;SDS011;11222;50.872;4.312;2023-02-08T09:20:29;21.75;;;10.10;;
22111;SDS011;11222;50.872;4.312;2023-02-08T09:22:54;21.17;;;8.80;;
22111;SDS011;11222;50.872;4.312;2023-02-08T09:25:21;16.02;;;8.88;;
22111;SDS011;11222;50.872;4.312;2023-02-08T09:27:46;17.52;;;9.45;;
22111;SDS011;11222;50.872;4.312;2023-02-08T09:30:12;13.80;;;8.10;;
22111;SDS011;11222;50.872;4.312;2023-02-08T09:32:38;18.13;;;8.38;;
22111;SDS011;11222;50.872;4.312;2023-02-08T09:35:05;18.80;;;9.75;;
22111;SDS011;11222;50.872;4.312;2023-02-08T09:37:31;14.68;;;9.40;;
22111;SDS011;11222;50.872;4.312;2023-02-08T09:39:57;15.38;;;9.48;;
22111;SDS011;11222;50.872;4.312;2023-02-08T09:47:35;24.95;;;8.63;;
22111;SDS011;11222;50.872;4.312;2023-02-08T09:52:48;13.20;;;8.23;;
22111;SDS011;11222;50.872;4.312;2023-02-08T09:58:12;15.05;;;8.30;;
22111;SDS011;11222;50.872;4.312;2023-02-08T10:01:00;16.83;;;9.23;;
22111;SDS011;11222;50.872;4.312;2023-02-08T10:03:32;16.25;;;8.73;;
22111;SDS011;11222;50.872;4.312;2023-02-08T10:06:02;13.93;;;7.90;;
22111;SDS011;11222;50.872;4.312;2023-02-08T10:08:30;13.75;;;7.47;;
22111;SDS011;11222;50.872;4.312;2023-02-08T10:11:22;12.80;;;7.70;;
22111;SDS011;11222;50.872;4.312;2023-02-08T10:27:45;13.50;;;7.88;;
22111;SDS011;11222;50.872;4.312;2023-02-08T10:30:21;14.07;;;7.20;;
22111;SDS011;11222;50.872;4.312;2023-02-08T10:35:53;11.05;;;7.43;;
22111;SDS011;11222;50.872;4.312;2023-02-08T10:40:58;21.42;;;7.55;;
22111;SDS011;11222;50.872;4.312;2023-02-08T10:51:44;15.13;;;6.60;;
22111;SDS011;11222;50.872;4.312;2023-02-08T10:54:14;16.02;;;7.32;;
22111;SDS011;11222;50.872;4.312;2023-02-08T10:59:55;11.43;;;6.63;;
22111;SDS011;11222;50.872;4.312;2023-02-08T11:02:26;15.85;;;6.80;;
22111;SDS011;11222;50.872;4.312;2023-02-08T11:05:03;11.77;;;6.30;;
22111;SDS011;11222;50.872;4.312;2023-02-08T11:07:34;10.65;;;6.10;;
22111;SDS011;11222;50.872;4.312;2023-02-08T11:15:25;8.77;;;5.20;;
22111;SDS011;11222;50.872;4.312;2023-02-08T11:17:56;8.52;;;4.97;;
22111;SDS011;11222;50.872;4.312;2023-02-08T11:20:31;7.07;;;4.95;;
22111;SDS011;11222;50.872;4.312;2023-02-08T11:23:01;7.72;;;5.20;;
22111;SDS011;11222;50.872;4.312;2023-02-08T11:25:33;8.07;;;4.40;;
22111;SDS011;11222;50.872;4.312;2023-02-08T11:28:03;7.10;;;4.67;;
22111;SDS011;11222;50.872;4.312;2023-02-08T11:30:33;6.38;;;4.65;;
22111;SDS011;11222;50.872;4.312;2023-02-08T11:33:15;4.90;;;4.40;;
22111;SDS011;11222;50.872;4.312;2023-02-08T11:35:53;8.88;;;5.40;;
22111;SDS011;11222;50.872;4.312;2023-02-08T11:38:28;6.57;;;5.72;;
22111;SDS011;11222;50.872;4.312;2023-02-08T11:40:56;6.85;;;5.38;;
22111;SDS011;11222;50.872;4.312;2023-02-08T11:43:25;5.95;;;4.97;;
22111;SDS011;11222;50.872;4.312;2023-02-08T11:45:56;5.75;;;5.13;;
22111;SDS011;11222;50.872;4.312;2023-02-08T11:51:02;5.40;;;4.72;;
22111;SDS011;11222;50.872;4.312;2023-02-08T11:53:29;7.78;;;6.13;;
22111;SDS011;11222;50.872;4.312;2023-02-08T11:56:13;6.93;;;5.68;;
22111;SDS011;11222;50.872;4.312;2023-02-08T11:58:53;7.45;;;5.28;;
22111;SDS011;11222;50.872;4.312;2023-02-08T12:01:53;6.25;;;4.78;;
22111;SDS011;11222;50.872;4.312;2023-02-08T12:04:19;4.80;;;4.28;;
22111;SDS011;11222;50.872;4.312;2023-02-08T12:19:07;6.47;;;5.60;;
22111;SDS011;11222;50.872;4.312;2023-02-08T12:21:13;5.90;;;4.97;;
22111;SDS011;11222;50.872;4.312;2023-02-08T12:23:48;7.45;;;4.90;;
22111;SDS011;11222;50.872;4.312;2023-02-08T12:29:21;6.32;;;4.55;;
22111;SDS011;11222;50.872;4.312;2023-02-08T12:32:05;6.22;;;4.28;;
22111;SDS011;11222;50.872;4.312;2023-02-08T12:49:27;6.53;;;5.30;;
22111;SDS011;11222;50.872;4.312;2023-02-08T12:52:06;6.55;;;4.80;;
22111;SDS011;11222;50.872;4.312;2023-02-08T12:54:39;6.57;;;4.13;;
22111;SDS011;11222;50.872;4.312;2023-02-08T12:57:06;7.53;;;4.80;;
22111;SDS011;11222;50.872;4.312;2023-02-08T12:59:48;6.22;;;4.38;;
22111;SDS011;11222;50.872;4.312;2023-02-08T13:02:25;6.60;;;4.35;;
22111;SDS011;11222;50.872;4.312;2023-02-08T13:05:07;6.78;;;4.00;;
22111;SDS011;11222;50.872;4.312;2023-02-08T13:07:45;6.50;;;4.82;;
22111;SDS011;11222;50.872;4.312;2023-02-08T13:10:19;10.07;;;5.93;;
22111;SDS011;11222;50.872;4.312;2023-02-08T13:12:53;11.55;;;6.10;;
22111;SDS011;11222;50.872;4.312;2023-02-08T13:18:34;11.60;;;5.53;;
22111;SDS011;11222;50.872;4.312;2023-02-08T13:21:07;14.18;;;6.00;;
22111;SDS011;11222;50.872;4.312;2023-02-08T13:24:18;12.32;;;6.10;;
22111;SDS011;11222;50.872;4.312;2023-02-08T13:26:55;9.88;;;5.40;;
22111;SDS011;11222;50.872;4.312;2023-02-08T13:29:21;6.30;;;5.22;;
22111;SDS011;11222;50.872;4.312;2023-02-08T13:31:50;12.77;;;5.97;;
22111;SDS011;11222;50.872;4.312;2023-02-08T13:34:43;11.60;;;5.72;;
22111;SDS011;11222;50.872;4.312;2023-02-08T13:37:19;9.75;;;5.50;;
22111;SDS011;11222;50.872;4.312;2023-02-08T13:39:47;10.68;;;6.38;;
22111;SDS011;11222;50.872;4.312;2023-02-08T13:42:22;12.77;;;5.60;;
22111;SDS011;11222;50.872;4.312;2023-02-08T13:44:54;9.30;;;5.10;;
22111;SDS011;11222;50.872;4.312;2023-02-08T13:47:28;7.00;;;5.05;;
22111;SDS011;11222;50.872;4.312;2023-02-08T14:14:04;9.38;;;5.35;;
22111;SDS011;11222;50.872;4.312;2023-02-08T14:16:42;15.80;;;5.82;;
22111;SDS011;11222;50.872;4.312;2023-02-08T14:21:45;9.20;;;6.22;;
22111;SDS011;11222;50.872;4.312;2023-02-08T14:24:40;8.15;;;5.78;;
22111;SDS011;11222;50.872;4.312;2023-02-08T14:32:30;14.68;;;6.82;;
22111;SDS011;11222;50.872;4.312;2023-02-08T14:37:35;9.80;;;6.03;;
22111;SDS011;11222;50.872;4.312;2023-02-08T14:42:52;17.95;;;7.22;;
22111;SDS011;11222;50.872;4.312;2023-02-08T14:45:28;20.40;;;10.00;;
22111;SDS011;11222;50.872;4.312;2023-02-08T14:56:14;10.02;;;6.40;;
22111;SDS011;11222;50.872;4.312;2023-02-08T14:58:51;9.68;;;6.22;;
22111;SDS011;11222;50.872;4.312;2023-02-08T15:04:05;7.65;;;6.00;;
22111;SDS011;11222;50.872;4.312;2023-02-08T15:11:52;7.93;;;6.22;;
22111;SDS011;11222;50.872;4.312;2023-02-08T15:14:23;9.65;;;6.47;;
22111;SDS011;11222;50.872;4.312;2023-02-08T15:16:50;7.28;;;5.57;;
22111;SDS011;11222;50.872;4.312;2023-02-08T15:24:52;11.35;;;6.32;;
22111;SDS011;11222;50.872;4.312;2023-02-08T15:27:27;8.82;;;6.05;;
22111;SDS011;11222;50.872;4.312;2023-02-08T15:29:56;8.52;;;5.82;;
22111;SDS011;11222;50.872;4.312;2023-02-08T15:32:23;11.10;;;6.32;;
22111;SDS011;11222;50.872;4.312;2023-02-08T15:34:55;11.32;;;6.05;;
22111;SDS011;11222;50.872;4.312;2023-02-08T15:37:29;10.50;;;6.00;;
22111;SDS011;11222;50.872;4.312;2023-02-08T15:39:57;10.00;;;6.47;;
22111;SDS011;11222;50.872;4.312;2023-02-08T15:42:26;10.70;;;6.55;;
22111;SDS011;11222;50.872;4.312;2023-02-08T15:44:54;9.57;;;6.82;;
22111;SDS011;11222;50.872;4.312;2023-02-08T15:47:27;10.98;;;6.63;;
22111;SDS011;11222;50.872;4.312;2023-02-08T15:49:55;9.18;;;6.70;;
22111;SDS011;11222;50.872;4.312;2023-02-08T15:52:23;12.63;;;7.18;;
22111;SDS011;11222;50.872;4.312;2023-02-08T15:54:58;10.45;;;6.57;;
22111;SDS011;11222;50.872;4.312;2023-02-08T15:59:53;9.80;;;5.90;;
22111;SDS011;11222;50.872;4.312;2023-02-08T16:04:51;12.38;;;6.20;;
22111;SDS011;11222;50.872;4.312;2023-02-08T16:10:03;10.60;;;6.60;;
22111;SDS011;11222;50.872;4.312;2023-02-08T16:12:31;12.68;;;6.88;;
22111;SDS011;11222;50.872;4.312;2023-02-08T16:14:58;10.50;;;6.30;;
22111;SDS011;11222;50.872;4.312;2023-02-08T16:17:31;12.27;;;6.90;;
22111;SDS011;11222;50.872;4.312;2023-02-08T16:19:57;9.63;;;6.10;;
22111;SDS011;11222;50.872;4.312;2023-02-08T16:22:24;9.88;;;6.55;;
22111;SDS011;11222;50.872;4.312;2023-02-08T16:24:53;12.85;;;6.53;;
22111;SDS011;11222;50.872;4.312;2023-02-08T16:27:59;10.90;;;6.55;;
22111;SDS011;11222;50.872;4.312;2023-02-08T16:30:25;11.13;;;6.60;;
22111;SDS011;11222;50.872;4.312;2023-02-08T16:32:51;9.60;;;7.03;;
22111;SDS011;11222;50.872;4.312;2023-02-08T16:37:52;11.38;;;6.95;;
22111;SDS011;11222;50.872;4.312;2023-02-08T16:43:14;12.10;;;6.97;;
22111;SDS011;11222;50.872;4.312;2023-02-08T16:45:42;11.23;;;6.90;;
22111;SDS011;11222;50.872;4.312;2023-02-08T16:49:08;11.07;;;7.10;;
22111;SDS011;11222;50.872;4.312;2023-02-08T16:51:06;17.25;;;7.43;;
22111;SDS011;11222;50.872;4.312;2023-02-08T16:53:36;13.88;;;6.88;;
22111;SDS011;11222;50.872;4.312;2023-02-08T16:56:02;15.35;;;7.25;;
22111;SDS011;11222;50.872;4.312;2023-02-08T16:58:27;10.48;;;7.10;;
22111;SDS011;11222;50.872;4.312;2023-02-08T17:00:53;12.18;;;7.35;;
22111;SDS011;11222;50.872;4.312;2023-02-08T17:03:19;11.75;;;6.85;;
22111;SDS011;11222;50.872;4.312;2023-02-08T17:05:45;8.68;;;6.40;;
22111;SDS011;11222;50.872;4.312;2023-02-08T17:08:15;9.82;;;6.18;;
22111;SDS011;11222;50.872;4.312;2023-02-08T17:10:43;9.65;;;6.15;;
22111;SDS011;11222;50.872;4.312;2023-02-08T17:13:09;10.15;;;6.25;;
22111;SDS011;11222;50.872;4.312;2023-02-08T17:15:36;13.15;;;6.75;;
22111;SDS011;11222;50.872;4.312;2023-02-08T17:18:02;9.48;;;6.10;;
22111;SDS011;11222;50.872;4.312;2023-02-08T17:20:30;11.25;;;6.85;;
22111;SDS011;11222;50.872;4.312;2023-02-08T17:22:59;10.05;;;6.93;;
22111;SDS011;11222;50.872;4.312;2023-02-08T17:25:27;12.20;;;7.20;;
22111;SDS011;11222;50.872;4.312;2023-02-08T17:27:56;14.80;;;7.18;;
22111;SDS011;11222;50.872;4.312;2023-02-08T17:30:27;12.85;;;6.90;;
22111;SDS011;11222;50.872;4.312;2023-02-08T17:32:56;13.13;;;6.82;;
22111;SDS011;11222;50.872;4.312;2023-02-08T17:35:25;13.27;;;7.05;;
22111;SDS011;11222;50.872;4.312;2023-02-08T17:37:53;12.13;;;7.15;;
22111;SDS011;11222;50.872;4.312;2023-02-08T17:40:21;12.38;;;6.90;;
22111;SDS011;11222;50.872;4.312;2023-02-08T17:42:50;12.43;;;7.53;;
22111;SDS011;11222;50.872;4.312;2023-02-08T17:45:16;13.52;;;9.00;;
22111;SDS011;11222;50.872;4.312;2023-02-08T17:47:42;17.67;;;9.48;;
22111;SDS011;11222;50.872;4.312;2023-02-08T17:50:09;15.50;;;9.38;;
22111;SDS011;11222;50.872;4.312;2023-02-08T17:52:36;15.68;;;8.18;;
22111;SDS011;11222;50.872;4.312;2023-02-08T17:55:07;14.35;;;8.38;;
22111;SDS011;11222;50.872;4.312;2023-02-08T17:57:35;13.93;;;8.02;;
22111;SDS011;11222;50.872;4.312;2023-02-08T18:00:04;12.73;;;7.45;;
22111;SDS011;11222;50.872;4.312;2023-02-08T18:02:33;18.70;;;7.45;;